Postojna, Slovenia
Current Conditions -  °F | °C
As of 11:55 PM on Saturday 25 Oct 2014 (Local Time) from LIVT Reporting Station
Clear Clear  
Wind Chill: 54°   Ceiling: Unl
Heat Index: 54°   Visibility: 6mi
Dew Point: 39°   Wind: 20mph
Humidity: 58%   Direction: 40°NE
Pressure: 30.18"   Gusts: 46mph
Location:  45.78°N, 14.22°E
Report Text: LIVT 252255Z 04017G40KT CAVOK 12/04 Q1022 RMK SCT SCT100 QUK / QUL / VIS MAR 10 KM VIS MIN 9999
Loading
Personal Weather Stations






























Interactive Weather Map
Tropical Storm Tracking
New forecast layout! Learn more

10-Day Weather Forecast

Advertisements
Track Severe Weather on mobile